sensor_id;sensor_type;location;lat;lon;timestamp;temperature;humidity
37204;DHT22;23098;48.054;10.636;2022-08-19T00:00:23;16.90;99.90
37204;DHT22;23098;48.054;10.636;2022-08-19T00:02:49;16.90;99.90
37204;DHT22;23098;48.054;10.636;2022-08-19T00:05:15;16.80;99.90
37204;DHT22;23098;48.054;10.636;2022-08-19T00:07:43;16.90;99.90
37204;DHT22;23098;48.054;10.636;2022-08-19T00:10:11;16.90;99.90
37204;DHT22;23098;48.054;10.636;2022-08-19T00:12:37;16.90;99.90
37204;DHT22;23098;48.054;10.636;2022-08-19T00:15:05;16.90;99.90
37204;DHT22;23098;48.054;10.636;2022-08-19T01:03:20;17.00;99.90
37204;DHT22;23098;48.054;10.636;2022-08-19T01:44:31;16.90;99.90
37204;DHT22;23098;48.054;10.636;2022-08-19T01:46:57;16.90;99.90
37204;DHT22;23098;48.054;10.636;2022-08-19T01:49:24;16.90;99.90
37204;DHT22;23098;48.054;10.636;2022-08-19T01:51:51;16.90;99.90
37204;DHT22;23098;48.054;10.636;2022-08-19T01:54:18;16.90;99.90
37204;DHT22;23098;48.054;10.636;2022-08-19T01:56:44;16.90;99.90
37204;DHT22;23098;48.054;10.636;2022-08-19T01:59:17;16.90;99.90
37204;DHT22;23098;48.054;10.636;2022-08-19T02:01:44;16.90;99.90
37204;DHT22;23098;48.054;10.636;2022-08-19T02:04:09;16.90;99.90
37204;DHT22;23098;48.054;10.636;2022-08-19T02:06:36;16.90;99.90
37204;DHT22;23098;48.054;10.636;2022-08-19T04:16:14;17.00;99.90
37204;DHT22;23098;48.054;10.636;2022-08-19T04:18:40;17.00;99.90
37204;DHT22;23098;48.054;10.636;2022-08-19T04:21:08;17.00;99.90
37204;DHT22;23098;48.054;10.636;2022-08-19T04:23:34;17.00;99.90
37204;DHT22;23098;48.054;10.636;2022-08-19T04:26:03;17.00;99.90
37204;DHT22;23098;48.054;10.636;2022-08-19T04:28:29;17.00;99.90
37204;DHT22;23098;48.054;10.636;2022-08-19T04:30:55;17.00;99.90
37204;DHT22;23098;48.054;10.636;2022-08-19T04:33:23;17.00;99.90
37204;DHT22;23098;48.054;10.636;2022-08-19T04:35:51;17.00;99.90
37204;DHT22;23098;48.054;10.636;2022-08-19T04:38:21;17.00;99.90
37204;DHT22;23098;48.054;10.636;2022-08-19T04:40:51;17.10;99.90
37204;DHT22;23098;48.054;10.636;2022-08-19T04:43:38;17.10;99.90
37204;DHT22;23098;48.054;10.636;2022-08-19T04:46:08;17.10;99.90
37204;DHT22;23098;48.054;10.636;2022-08-19T04:48:36;17.10;99.90
37204;DHT22;23098;48.054;10.636;2022-08-19T04:51:07;17.10;99.90
37204;DHT22;23098;48.054;10.636;2022-08-19T04:53:35;17.10;99.90
37204;DHT22;23098;48.054;10.636;2022-08-19T04:56:05;17.20;99.90
37204;DHT22;23098;48.054;10.636;2022-08-19T04:58:33;17.20;99.90
37204;DHT22;23098;48.054;10.636;2022-08-19T05:00:58;17.10;99.90
37204;DHT22;23098;48.054;10.636;2022-08-19T05:03:25;17.10;99.90
37204;DHT22;23098;48.054;10.636;2022-08-19T05:05:51;17.10;99.90
37204;DHT22;23098;48.054;10.636;2022-08-19T05:08:20;17.10;99.90
37204;DHT22;23098;48.054;10.636;2022-08-19T05:10:49;17.10;99.90
37204;DHT22;23098;48.054;10.636;2022-08-19T05:13:17;17.10;99.90
37204;DHT22;23098;48.054;10.636;2022-08-19T05:15:43;17.10;99.90
37204;DHT22;23098;48.054;10.636;2022-08-19T05:18:10;17.20;99.90
37204;DHT22;23098;48.054;10.636;2022-08-19T05:20:54;17.20;99.90
37204;DHT22;23098;48.054;10.636;2022-08-19T05:23:40;17.20;99.90
37204;DHT22;23098;48.054;10.636;2022-08-19T05:26:06;17.20;99.90
37204;DHT22;23098;48.054;10.636;2022-08-19T05:28:32;17.20;99.90
37204;DHT22;23098;48.054;10.636;2022-08-19T05:30:57;17.20;99.90
37204;DHT22;23098;48.054;10.636;2022-08-19T05:33:23;17.20;99.90
37204;DHT22;23098;48.054;10.636;2022-08-19T05:35:50;17.20;99.90
37204;DHT22;23098;48.054;10.636;2022-08-19T05:38:17;17.30;99.90
37204;DHT22;23098;48.054;10.636;2022-08-19T05:40:43;17.20;99.90
37204;DHT22;23098;48.054;10.636;2022-08-19T05:43:12;17.20;99.90
37204;DHT22;23098;48.054;10.636;2022-08-19T05:45:42;17.20;99.90
37204;DHT22;23098;48.054;10.636;2022-08-19T05:48:09;17.20;99.90
37204;DHT22;23098;48.054;10.636;2022-08-19T05:50:38;17.10;99.90
37204;DHT22;23098;48.054;10.636;2022-08-19T05:53:05;17.20;99.90
37204;DHT22;23098;48.054;10.636;2022-08-19T05:55:32;17.20;99.90
37204;DHT22;23098;48.054;10.636;2022-08-19T05:57:59;17.20;99.90
37204;DHT22;23098;48.054;10.636;2022-08-19T06:00:27;17.10;99.90
37204;DHT22;23098;48.054;10.636;2022-08-19T06:02:58;17.10;99.90
37204;DHT22;23098;48.054;10.636;2022-08-19T06:05:34;17.10;99.90
37204;DHT22;23098;48.054;10.636;2022-08-19T06:07:59;17.10;99.90
37204;DHT22;23098;48.054;10.636;2022-08-19T06:10:26;17.00;99.90
37204;DHT22;23098;48.054;10.636;2022-08-19T06:12:52;17.00;99.90
37204;DHT22;23098;48.054;10.636;2022-08-19T06:15:18;17.00;99.90
37204;DHT22;23098;48.054;10.636;2022-08-19T06:17:43;17.10;99.90
37204;DHT22;23098;48.054;10.636;2022-08-19T06:20:14;17.10;99.90
37204;DHT22;23098;48.054;10.636;2022-08-19T06:22:45;17.10;99.90
37204;DHT22;23098;48.054;10.636;2022-08-19T06:25:13;17.10;99.90
37204;DHT22;23098;48.054;10.636;2022-08-19T06:27:40;17.10;99.90
37204;DHT22;23098;48.054;10.636;2022-08-19T06:30:06;17.10;99.90
37204;DHT22;23098;48.054;10.636;2022-08-19T06:32:32;17.10;99.90
37204;DHT22;23098;48.054;10.636;2022-08-19T06:34:58;17.10;99.90
37204;DHT22;23098;48.054;10.636;2022-08-19T06:37:23;17.20;99.90
37204;DHT22;23098;48.054;10.636;2022-08-19T06:39:50;17.20;99.90
37204;DHT22;23098;48.054;10.636;2022-08-19T06:42:15;17.20;99.90
37204;DHT22;23098;48.054;10.636;2022-08-19T06:44:45;17.10;99.90
37204;DHT22;23098;48.054;10.636;2022-08-19T06:47:13;17.10;99.90
37204;DHT22;23098;48.054;10.636;2022-08-19T06:49:39;17.20;99.90
37204;DHT22;23098;48.054;10.636;2022-08-19T06:52:07;17.20;99.90
37204;DHT22;23098;48.054;10.636;2022-08-19T06:54:33;17.30;99.90
37204;DHT22;23098;48.054;10.636;2022-08-19T06:56:59;17.30;99.90
37204;DHT22;23098;48.054;10.636;2022-08-19T06:59:29;17.30;99.90
37204;DHT22;23098;48.054;10.636;2022-08-19T07:01:59;17.40;99.90
37204;DHT22;23098;48.054;10.636;2022-08-19T07:04:28;17.50;99.90
37204;DHT22;23098;48.054;10.636;2022-08-19T07:06:58;17.40;99.90
37204;DHT22;23098;48.054;10.636;2022-08-19T07:09:24;17.40;99.90
37204;DHT22;23098;48.054;10.636;2022-08-19T07:11:51;17.50;99.90
37204;DHT22;23098;48.054;10.636;2022-08-19T07:14:22;17.70;99.90
37204;DHT22;23098;48.054;10.636;2022-08-19T07:16:52;17.70;99.90
37204;DHT22;23098;48.054;10.636;2022-08-19T07:19:20;17.70;99.90
37204;DHT22;23098;48.054;10.636;2022-08-19T07:21:48;17.60;99.90
37204;DHT22;23098;48.054;10.636;2022-08-19T07:24:15;17.50;99.90
37204;DHT22;23098;48.054;10.636;2022-08-19T07:26:42;17.50;99.90
37204;DHT22;23098;48.054;10.636;2022-08-19T07:29:09;17.50;99.90
37204;DHT22;23098;48.054;10.636;2022-08-19T07:31:35;17.50;99.90
37204;DHT22;23098;48.054;10.636;2022-08-19T07:34:06;17.40;99.90
37204;DHT22;23098;48.054;10.636;2022-08-19T07:36:33;17.30;99.90
37204;DHT22;23098;48.054;10.636;2022-08-19T07:39:03;17.30;99.90
37204;DHT22;23098;48.054;10.636;2022-08-19T07:41:29;17.20;99.90
37204;DHT22;23098;48.054;10.636;2022-08-19T07:43:56;17.20;99.90
37204;DHT22;23098;48.054;10.636;2022-08-19T07:46:21;17.20;99.90
37204;DHT22;23098;48.054;10.636;2022-08-19T07:48:49;17.20;99.90
37204;DHT22;23098;48.054;10.636;2022-08-19T07:51:18;17.20;99.90
37204;DHT22;23098;48.054;10.636;2022-08-19T07:53:44;17.20;99.90
37204;DHT22;23098;48.054;10.636;2022-08-19T07:56:12;17.10;99.90
37204;DHT22;23098;48.054;10.636;2022-08-19T07:58:41;17.10;99.90
37204;DHT22;23098;48.054;10.636;2022-08-19T08:01:10;17.10;99.90
37204;DHT22;23098;48.054;10.636;2022-08-19T08:03:36;17.10;99.90
37204;DHT22;23098;48.054;10.636;2022-08-19T08:06:21;17.10;99.90
37204;DHT22;23098;48.054;10.636;2022-08-19T08:09:07;17.10;99.90
37204;DHT22;23098;48.054;10.636;2022-08-19T08:11:53;17.20;99.90
37204;DHT22;23098;48.054;10.636;2022-08-19T08:14:32;17.20;99.90
37204;DHT22;23098;48.054;10.636;2022-08-19T08:16:58;17.20;99.90
37204;DHT22;23098;48.054;10.636;2022-08-19T08:22:32;17.00;99.90
37204;DHT22;23098;48.054;10.636;2022-08-19T08:25:20;17.00;99.90
37204;DHT22;23098;48.054;10.636;2022-08-19T08:27:48;17.10;99.90
37204;DHT22;23098;48.054;10.636;2022-08-19T08:30:21;17.10;99.90
37204;DHT22;23098;48.054;10.636;2022-08-19T08:32:47;17.10;99.90
37204;DHT22;23098;48.054;10.636;2022-08-19T08:35:15;17.10;99.90
37204;DHT22;23098;48.054;10.636;2022-08-19T08:37:43;17.10;99.90
37204;DHT22;23098;48.054;10.636;2022-08-19T08:45:43;17.20;99.90
37204;DHT22;23098;48.054;10.636;2022-08-19T08:48:24;17.10;99.90
37204;DHT22;23098;48.054;10.636;2022-08-19T08:50:53;17.10;99.90
37204;DHT22;23098;48.054;10.636;2022-08-19T08:53:20;17.10;99.90
37204;DHT22;23098;48.054;10.636;2022-08-19T08:55:46;17.20;99.90
37204;DHT22;23098;48.054;10.636;2022-08-19T08:58:56;17.20;99.90
37204;DHT22;23098;48.054;10.636;2022-08-19T09:01:18;17.30;99.90
37204;DHT22;23098;48.054;10.636;2022-08-19T09:03:45;17.20;99.90
37204;DHT22;23098;48.054;10.636;2022-08-19T09:06:35;17.20;99.90
37204;DHT22;23098;48.054;10.636;2022-08-19T09:09:09;17.30;99.90
37204;DHT22;23098;48.054;10.636;2022-08-19T09:14:49;17.30;99.90
37204;DHT22;23098;48.054;10.636;2022-08-19T09:17:16;17.20;99.90
37204;DHT22;23098;48.054;10.636;2022-08-19T09:19:52;17.10;99.90
37204;DHT22;23098;48.054;10.636;2022-08-19T09:22:18;17.20;99.90
37204;DHT22;23098;48.054;10.636;2022-08-19T09:24:49;17.20;99.90
37204;DHT22;23098;48.054;10.636;2022-08-19T09:27:17;17.20;99.90
37204;DHT22;23098;48.054;10.636;2022-08-19T09:29:43;17.20;99.90
37204;DHT22;23098;48.054;10.636;2022-08-19T09:32:09;17.10;99.90
37204;DHT22;23098;48.054;10.636;2022-08-19T09:34:34;17.10;99.90
37204;DHT22;23098;48.054;10.636;2022-08-19T09:37:00;17.10;99.90
37204;DHT22;23098;48.054;10.636;2022-08-19T09:39:26;17.00;99.90
37204;DHT22;23098;48.054;10.636;2022-08-19T09:41:51;17.00;99.90
37204;DHT22;23098;48.054;10.636;2022-08-19T09:44:18;17.00;99.90
37204;DHT22;23098;48.054;10.636;2022-08-19T09:46:46;17.00;99.90
37204;DHT22;23098;48.054;10.636;2022-08-19T09:49:15;17.00;99.90
37204;DHT22;23098;48.054;10.636;2022-08-19T09:51:42;17.10;99.90
37204;DHT22;23098;48.054;10.636;2022-08-19T09:54:08;17.10;99.90
37204;DHT22;23098;48.054;10.636;2022-08-19T09:56:34;17.10;99.90
37204;DHT22;23098;48.054;10.636;2022-08-19T09:59:01;17.20;99.90
37204;DHT22;23098;48.054;10.636;2022-08-19T10:01:28;17.20;99.90
37204;DHT22;23098;48.054;10.636;2022-08-19T10:03:57;17.20;99.90
37204;DHT22;23098;48.054;10.636;2022-08-19T10:06:25;17.20;99.90
37204;DHT22;23098;48.054;10.636;2022-08-19T10:08:52;17.20;99.90
37204;DHT22;23098;48.054;10.636;2022-08-19T10:11:19;17.30;99.90
37204;DHT22;23098;48.054;10.636;2022-08-19T10:13:45;17.30;99.90
37204;DHT22;23098;48.054;10.636;2022-08-19T10:16:15;17.20;99.90
37204;DHT22;23098;48.054;10.636;2022-08-19T10:18:41;17.10;99.90
37204;DHT22;23098;48.054;10.636;2022-08-19T10:21:14;17.10;99.90
37204;DHT22;23098;48.054;10.636;2022-08-19T10:23:43;17.10;99.90
37204;DHT22;23098;48.054;10.636;2022-08-19T10:26:18;17.10;99.90
37204;DHT22;23098;48.054;10.636;2022-08-19T10:28:44;17.10;99.90
37204;DHT22;23098;48.054;10.636;2022-08-19T10:31:16;17.10;99.90
37204;DHT22;23098;48.054;10.636;2022-08-19T10:33:43;17.10;99.90
37204;DHT22;23098;48.054;10.636;2022-08-19T10:36:15;17.00;99.90
37204;DHT22;23098;48.054;10.636;2022-08-19T10:38:41;17.00;99.90
37204;DHT22;23098;48.054;10.636;2022-08-19T10:41:14;16.90;99.90
37204;DHT22;23098;48.054;10.636;2022-08-19T10:43:41;16.90;99.90
37204;DHT22;23098;48.054;10.636;2022-08-19T10:46:12;16.90;99.90
37204;DHT22;23098;48.054;10.636;2022-08-19T10:48:38;16.90;99.90
37204;DHT22;23098;48.054;10.636;2022-08-19T10:51:04;16.90;99.90
37204;DHT22;23098;48.054;10.636;2022-08-19T10:53:49;16.80;99.90
37204;DHT22;23098;48.054;10.636;2022-08-19T10:56:15;16.80;99.90
37204;DHT22;23098;48.054;10.636;2022-08-19T10:58:59;16.80;99.90
37204;DHT22;23098;48.054;10.636;2022-08-19T11:01:26;16.80;99.90
37204;DHT22;23098;48.054;10.636;2022-08-19T11:03:52;16.80;99.90
37204;DHT22;23098;48.054;10.636;2022-08-19T11:06:18;16.80;99.90
37204;DHT22;23098;48.054;10.636;2022-08-19T11:08:45;16.80;99.90
37204;DHT22;23098;48.054;10.636;2022-08-19T11:11:11;16.70;99.90
37204;DHT22;23098;48.054;10.636;2022-08-19T11:13:39;16.70;99.90
37204;DHT22;23098;48.054;10.636;2022-08-19T11:16:08;16.70;99.90
37204;DHT22;23098;48.054;10.636;2022-08-19T11:18:45;16.70;99.90
37204;DHT22;23098;48.054;10.636;2022-08-19T11:21:23;16.60;99.90
37204;DHT22;23098;48.054;10.636;2022-08-19T11:23:52;16.60;99.90
37204;DHT22;23098;48.054;10.636;2022-08-19T11:26:19;16.60;99.90
37204;DHT22;23098;48.054;10.636;2022-08-19T11:28:45;16.50;99.90
37204;DHT22;23098;48.054;10.636;2022-08-19T11:31:16;16.50;99.90
37204;DHT22;23098;48.054;10.636;2022-08-19T11:33:42;16.50;99.90
37204;DHT22;23098;48.054;10.636;2022-08-19T11:36:08;16.50;99.90
37204;DHT22;23098;48.054;10.636;2022-08-19T11:38:35;16.50;99.90
37204;DHT22;23098;48.054;10.636;2022-08-19T11:41:04;16.40;99.90
37204;DHT22;23098;48.054;10.636;2022-08-19T11:43:30;16.40;99.90
37204;DHT22;23098;48.054;10.636;2022-08-19T11:45:56;16.40;99.90
37204;DHT22;23098;48.054;10.636;2022-08-19T11:48:22;16.40;99.90
37204;DHT22;23098;48.054;10.636;2022-08-19T11:50:49;16.40;99.90
37204;DHT22;23098;48.054;10.636;2022-08-19T11:53:16;16.40;99.90
37204;DHT22;23098;48.054;10.636;2022-08-19T11:55:41;16.30;99.90
37204;DHT22;23098;48.054;10.636;2022-08-19T11:58:08;16.40;99.90
37204;DHT22;23098;48.054;10.636;2022-08-19T12:00:34;16.40;99.90
37204;DHT22;23098;48.054;10.636;2022-08-19T12:03:02;16.40;99.90
37204;DHT22;23098;48.054;10.636;2022-08-19T12:05:27;16.40;99.90
37204;DHT22;23098;48.054;10.636;2022-08-19T12:07:53;16.40;99.90
37204;DHT22;23098;48.054;10.636;2022-08-19T12:10:20;16.40;99.90
37204;DHT22;23098;48.054;10.636;2022-08-19T12:12:46;16.40;99.90
37204;DHT22;23098;48.054;10.636;2022-08-19T12:15:12;16.40;99.90
37204;DHT22;23098;48.054;10.636;2022-08-19T12:17:39;16.40;99.90
37204;DHT22;23098;48.054;10.636;2022-08-19T12:20:08;16.40;99.90
37204;DHT22;23098;48.054;10.636;2022-08-19T12:22:35;16.50;99.90
37204;DHT22;23098;48.054;10.636;2022-08-19T12:25:02;16.50;99.90
37204;DHT22;23098;48.054;10.636;2022-08-19T12:27:27;16.50;99.90
37204;DHT22;23098;48.054;10.636;2022-08-19T12:29:53;16.50;99.90
37204;DHT22;23098;48.054;10.636;2022-08-19T12:32:18;16.60;99.90
37204;DHT22;23098;48.054;10.636;2022-08-19T12:34:44;16.60;99.90
37204;DHT22;23098;48.054;10.636;2022-08-19T12:37:17;16.60;99.90
37204;DHT22;23098;48.054;10.636;2022-08-19T12:39:43;16.60;99.90
37204;DHT22;23098;48.054;10.636;2022-08-19T12:42:11;16.60;99.90
37204;DHT22;23098;48.054;10.636;2022-08-19T12:44:39;16.60;99.90
37204;DHT22;23098;48.054;10.636;2022-08-19T12:47:05;16.60;99.90
37204;DHT22;23098;48.054;10.636;2022-08-19T12:49:32;16.70;99.90
37204;DHT22;23098;48.054;10.636;2022-08-19T12:52:06;16.70;99.90
37204;DHT22;23098;48.054;10.636;2022-08-19T12:54:33;16.70;99.90
37204;DHT22;23098;48.054;10.636;2022-08-19T12:56:59;16.90;99.90
37204;DHT22;23098;48.054;10.636;2022-08-19T12:59:25;16.90;99.90
37204;DHT22;23098;48.054;10.636;2022-08-19T13:01:51;17.00;99.90
37204;DHT22;23098;48.054;10.636;2022-08-19T13:04:17;17.00;99.90
37204;DHT22;23098;48.054;10.636;2022-08-19T13:06:42;17.10;99.90
37204;DHT22;23098;48.054;10.636;2022-08-19T13:09:08;17.20;99.90
37204;DHT22;23098;48.054;10.636;2022-08-19T13:11:35;17.20;99.90
37204;DHT22;23098;48.054;10.636;2022-08-19T13:14:01;17.30;99.90
37204;DHT22;23098;48.054;10.636;2022-08-19T13:16:28;17.20;99.90
37204;DHT22;23098;48.054;10.636;2022-08-19T13:18:54;17.40;99.90
37204;DHT22;23098;48.054;10.636;2022-08-19T13:21:25;17.50;99.90
37204;DHT22;23098;48.054;10.636;2022-08-19T13:23:52;17.60;99.90
37204;DHT22;23098;48.054;10.636;2022-08-19T13:26:18;17.50;99.90
37204;DHT22;23098;48.054;10.636;2022-08-19T13:28:44;17.70;99.90
37204;DHT22;23098;48.054;10.636;2022-08-19T13:31:32;17.70;99.90
37204;DHT22;23098;48.054;10.636;2022-08-19T13:34:18;17.90;99.90
37204;DHT22;23098;48.054;10.636;2022-08-19T13:36:45;17.90;99.90
37204;DHT22;23098;48.054;10.636;2022-08-19T13:39:11;17.90;99.90
37204;DHT22;23098;48.054;10.636;2022-08-19T13:41:43;18.00;99.90
37204;DHT22;23098;48.054;10.636;2022-08-19T13:44:13;18.00;99.90
37204;DHT22;23098;48.054;10.636;2022-08-19T13:46:39;18.00;99.90
37204;DHT22;23098;48.054;10.636;2022-08-19T13:49:04;18.00;99.90
37204;DHT22;23098;48.054;10.636;2022-08-19T13:51:30;18.00;99.90
37204;DHT22;23098;48.054;10.636;2022-08-19T13:53:55;17.90;99.90
37204;DHT22;23098;48.054;10.636;2022-08-19T13:56:21;18.00;99.90
37204;DHT22;23098;48.054;10.636;2022-08-19T13:58:47;18.30;99.90
37204;DHT22;23098;48.054;10.636;2022-08-19T14:01:19;18.40;99.90
37204;DHT22;23098;48.054;10.636;2022-08-19T14:03:45;18.30;99.90
37204;DHT22;23098;48.054;10.636;2022-08-19T14:06:10;18.10;99.90
37204;DHT22;23098;48.054;10.636;2022-08-19T14:08:36;18.10;99.90
37204;DHT22;23098;48.054;10.636;2022-08-19T14:11:04;17.70;99.90
37204;DHT22;23098;48.054;10.636;2022-08-19T14:13:33;17.50;99.90
37204;DHT22;23098;48.054;10.636;2022-08-19T14:15:59;17.50;99.90
37204;DHT22;23098;48.054;10.636;2022-08-19T14:18:25;17.50;99.90
37204;DHT22;23098;48.054;10.636;2022-08-19T14:20:51;17.70;99.90
37204;DHT22;23098;48.054;10.636;2022-08-19T14:23:17;17.90;99.90
37204;DHT22;23098;48.054;10.636;2022-08-19T14:25:43;17.90;99.90
37204;DHT22;23098;48.054;10.636;2022-08-19T14:28:09;18.00;99.90
37204;DHT22;23098;48.054;10.636;2022-08-19T14:30:37;18.10;99.90
37204;DHT22;23098;48.054;10.636;2022-08-19T14:33:03;18.10;99.90
37204;DHT22;23098;48.054;10.636;2022-08-19T14:35:31;18.10;99.90
37204;DHT22;23098;48.054;10.636;2022-08-19T14:38:00;18.10;99.90
37204;DHT22;23098;48.054;10.636;2022-08-19T14:40:28;18.10;99.90
37204;DHT22;23098;48.054;10.636;2022-08-19T14:43:00;18.20;99.90
37204;DHT22;23098;48.054;10.636;2022-08-19T14:45:30;18.20;99.90
37204;DHT22;23098;48.054;10.636;2022-08-19T14:47:56;18.20;99.90
37204;DHT22;23098;48.054;10.636;2022-08-19T14:50:21;18.10;99.90
37204;DHT22;23098;48.054;10.636;2022-08-19T14:52:48;18.10;99.90
37204;DHT22;23098;48.054;10.636;2022-08-19T14:55:15;18.10;99.90
37204;DHT22;23098;48.054;10.636;2022-08-19T14:57:41;18.10;99.90
37204;DHT22;23098;48.054;10.636;2022-08-19T15:00:08;18.10;99.90
37204;DHT22;23098;48.054;10.636;2022-08-19T15:02:38;17.90;99.90
37204;DHT22;23098;48.054;10.636;2022-08-19T15:05:04;17.80;99.90
37204;DHT22;23098;48.054;10.636;2022-08-19T15:07:30;17.70;99.90
37204;DHT22;23098;48.054;10.636;2022-08-19T15:09:56;17.60;99.90
37204;DHT22;23098;48.054;10.636;2022-08-19T15:12:21;17.50;99.90
37204;DHT22;23098;48.054;10.636;2022-08-19T15:14:47;17.40;99.90
37204;DHT22;23098;48.054;10.636;2022-08-19T15:17:16;17.30;99.90
37204;DHT22;23098;48.054;10.636;2022-08-19T15:19:42;17.20;99.90
37204;DHT22;23098;48.054;10.636;2022-08-19T15:22:17;17.20;99.90
37204;DHT22;23098;48.054;10.636;2022-08-19T15:24:43;17.10;99.90
37204;DHT22;23098;48.054;10.636;2022-08-19T15:27:12;17.10;99.90
37204;DHT22;23098;48.054;10.636;2022-08-19T15:29:38;17.10;99.90
37204;DHT22;23098;48.054;10.636;2022-08-19T15:32:05;17.10;99.90
37204;DHT22;23098;48.054;10.636;2022-08-19T15:34:32;17.10;99.90
37204;DHT22;23098;48.054;10.636;2022-08-19T15:36:57;17.20;99.90
37204;DHT22;23098;48.054;10.636;2022-08-19T15:39:24;17.10;99.90
37204;DHT22;23098;48.054;10.636;2022-08-19T15:41:50;17.10;99.90
37204;DHT22;23098;48.054;10.636;2022-08-19T15:44:18;17.10;99.90
37204;DHT22;23098;48.054;10.636;2022-08-19T15:46:45;17.10;99.90
37204;DHT22;23098;48.054;10.636;2022-08-19T15:49:15;17.10;99.90
37204;DHT22;23098;48.054;10.636;2022-08-19T15:51:43;17.10;99.90
37204;DHT22;23098;48.054;10.636;2022-08-19T15:54:15;17.10;99.90
37204;DHT22;23098;48.054;10.636;2022-08-19T15:56:41;17.10;99.90
37204;DHT22;23098;48.054;10.636;2022-08-19T15:59:26;17.10;99.90
37204;DHT22;23098;48.054;10.636;2022-08-19T16:02:10;17.10;99.90
37204;DHT22;23098;48.054;10.636;2022-08-19T16:04:55;17.20;99.90
37204;DHT22;23098;48.054;10.636;2022-08-19T16:07:39;17.20;99.90
37204;DHT22;23098;48.054;10.636;2022-08-19T16:10:05;17.20;99.90
37204;DHT22;23098;48.054;10.636;2022-08-19T16:12:31;17.20;99.90
37204;DHT22;23098;48.054;10.636;2022-08-19T16:14:57;17.10;99.90
37204;DHT22;23098;48.054;10.636;2022-08-19T16:17:23;17.00;99.90
37204;DHT22;23098;48.054;10.636;2022-08-19T16:19:50;16.90;99.90
37204;DHT22;23098;48.054;10.636;2022-08-19T16:22:15;16.90;99.90
37204;DHT22;23098;48.054;10.636;2022-08-19T16:24:41;16.70;99.90
37204;DHT22;23098;48.054;10.636;2022-08-19T16:27:07;16.60;99.90
37204;DHT22;23098;48.054;10.636;2022-08-19T16:29:32;16.60;99.90
37204;DHT22;23098;48.054;10.636;2022-08-19T16:32:02;16.50;99.90
37204;DHT22;23098;48.054;10.636;2022-08-19T16:34:28;16.50;99.90
37204;DHT22;23098;48.054;10.636;2022-08-19T16:36:57;16.40;99.90
37204;DHT22;23098;48.054;10.636;2022-08-19T16:42:17;16.30;99.90
37204;DHT22;23098;48.054;10.636;2022-08-19T16:44:45;16.30;99.90
37204;DHT22;23098;48.054;10.636;2022-08-19T16:52:23;16.10;99.90
37204;DHT22;23098;48.054;10.636;2022-08-19T16:54:52;16.10;99.90
37204;DHT22;23098;48.054;10.636;2022-08-19T16:57:19;16.10;99.90
37204;DHT22;23098;48.054;10.636;2022-08-19T16:59:45;16.10;99.90
37204;DHT22;23098;48.054;10.636;2022-08-19T17:02:11;16.10;99.90
37204;DHT22;23098;48.054;10.636;2022-08-19T17:04:38;16.10;99.90
37204;DHT22;23098;48.054;10.636;2022-08-19T17:07:14;16.00;99.90
37204;DHT22;23098;48.054;10.636;2022-08-19T17:17:59;15.80;99.90
37204;DHT22;23098;48.054;10.636;2022-08-19T17:20:29;15.90;99.90
37204;DHT22;23098;48.054;10.636;2022-08-19T17:23:00;15.80;99.90
37204;DHT22;23098;48.054;10.636;2022-08-19T17:25:28;15.80;99.90
37204;DHT22;23098;48.054;10.636;2022-08-19T17:27:56;15.80;99.90
37204;DHT22;23098;48.054;10.636;2022-08-19T17:30:22;15.80;99.90
37204;DHT22;23098;48.054;10.636;2022-08-19T17:32:49;15.70;99.90
37204;DHT22;23098;48.054;10.636;2022-08-19T17:35:16;15.70;99.90
37204;DHT22;23098;48.054;10.636;2022-08-19T17:37:46;15.80;99.90
37204;DHT22;23098;48.054;10.636;2022-08-19T17:40:13;15.80;99.90
37204;DHT22;23098;48.054;10.636;2022-08-19T17:42:39;15.80;99.90
37204;DHT22;23098;48.054;10.636;2022-08-19T17:45:07;15.80;99.90
37204;DHT22;23098;48.054;10.636;2022-08-19T17:47:34;15.90;99.90
37204;DHT22;23098;48.054;10.636;2022-08-19T17:50:00;15.90;99.90
37204;DHT22;23098;48.054;10.636;2022-08-19T17:52:26;15.90;99.90
37204;DHT22;23098;48.054;10.636;2022-08-19T17:54:52;15.90;99.90
37204;DHT22;23098;48.054;10.636;2022-08-19T17:57:18;15.90;99.90
37204;DHT22;23098;48.054;10.636;2022-08-19T17:59:44;15.90;99.90
37204;DHT22;23098;48.054;10.636;2022-08-19T18:02:10;15.90;99.90
37204;DHT22;23098;48.054;10.636;2022-08-19T18:04:37;15.90;99.90
37204;DHT22;23098;48.054;10.636;2022-08-19T18:07:03;16.00;99.90
37204;DHT22;23098;48.054;10.636;2022-08-19T18:09:34;16.00;99.90
37204;DHT22;23098;48.054;10.636;2022-08-19T18:12:01;16.00;99.90
37204;DHT22;23098;48.054;10.636;2022-08-19T18:14:31;15.90;99.90
37204;DHT22;23098;48.054;10.636;2022-08-19T18:16:59;15.90;99.90
37204;DHT22;23098;48.054;10.636;2022-08-19T18:19:25;15.90;99.90
37204;DHT22;23098;48.054;10.636;2022-08-19T18:21:55;15.90;99.90
37204;DHT22;23098;48.054;10.636;2022-08-19T18:24:21;15.90;99.90
37204;DHT22;23098;48.054;10.636;2022-08-19T18:31:53;15.90;99.90
37204;DHT22;23098;48.054;10.636;2022-08-19T18:34:21;16.00;99.90
37204;DHT22;23098;48.054;10.636;2022-08-19T18:36:49;16.00;99.90
37204;DHT22;23098;48.054;10.636;2022-08-19T18:39:14;16.10;99.90
37204;DHT22;23098;48.054;10.636;2022-08-19T18:42:00;16.10;99.90
37204;DHT22;23098;48.054;10.636;2022-08-19T18:44:54;16.10;99.90
37204;DHT22;23098;48.054;10.636;2022-08-19T18:47:40;16.10;99.90
37204;DHT22;23098;48.054;10.636;2022-08-19T18:50:24;16.10;99.90
37204;DHT22;23098;48.054;10.636;2022-08-19T18:52:51;16.10;99.90
37204;DHT22;23098;48.054;10.636;2022-08-19T18:55:19;16.20;99.90
37204;DHT22;23098;48.054;10.636;2022-08-19T18:57:48;16.20;99.90
37204;DHT22;23098;48.054;10.636;2022-08-19T19:00:16;16.20;99.90
37204;DHT22;23098;48.054;10.636;2022-08-19T19:02:42;16.30;99.90
37204;DHT22;23098;48.054;10.636;2022-08-19T19:05:13;16.30;99.90
37204;DHT22;23098;48.054;10.636;2022-08-19T19:07:39;16.30;99.90
37204;DHT22;23098;48.054;10.636;2022-08-19T19:10:07;16.30;99.90
37204;DHT22;23098;48.054;10.636;2022-08-19T19:12:42;16.30;99.90
37204;DHT22;23098;48.054;10.636;2022-08-19T19:15:19;16.30;99.90
37204;DHT22;23098;48.054;10.636;2022-08-19T19:17:55;16.40;99.90
37204;DHT22;23098;48.054;10.636;2022-08-19T19:20:22;16.30;99.90
37204;DHT22;23098;48.054;10.636;2022-08-19T19:22:56;16.30;99.90
37204;DHT22;23098;48.054;10.636;2022-08-19T19:25:27;16.30;99.90
37204;DHT22;23098;48.054;10.636;2022-08-19T19:27:53;16.30;99.90